sensor_id;sensor_type;location;lat;lon;timestamp;P1;durP1;ratioP1;P2;durP2;ratioP2
38379;SDS011;38377;47.418;18.882;2024-03-08T00:00:40;19.42;;;11.20;;
38379;SDS011;38377;47.418;18.882;2024-03-08T00:03:07;18.93;;;10.87;;
38379;SDS011;38377;47.418;18.882;2024-03-08T00:05:35;21.70;;;10.35;;
38379;SDS011;38377;47.418;18.882;2024-03-08T00:08:01;21.52;;;12.07;;
38379;SDS011;38377;47.418;18.882;2024-03-08T00:10:26;20.47;;;11.23;;
38379;SDS011;38377;47.418;18.882;2024-03-08T00:12:53;21.80;;;11.25;;
38379;SDS011;38377;47.418;18.882;2024-03-08T00:15:19;28.05;;;13.10;;
38379;SDS011;38377;47.418;18.882;2024-03-08T00:17:45;24.42;;;12.05;;
38379;SDS011;38377;47.418;18.882;2024-03-08T00:20:11;24.45;;;12.38;;
38379;SDS011;38377;47.418;18.882;2024-03-08T00:22:38;26.87;;;12.47;;
38379;SDS011;38377;47.418;18.882;2024-03-08T00:25:04;26.08;;;13.80;;
38379;SDS011;38377;47.418;18.882;2024-03-08T00:27:30;24.40;;;12.90;;
38379;SDS011;38377;47.418;18.882;2024-03-08T00:29:59;30.58;;;14.18;;
38379;SDS011;38377;47.418;18.882;2024-03-08T00:32:26;31.42;;;15.43;;
38379;SDS011;38377;47.418;18.882;2024-03-08T00:34:56;28.50;;;15.82;;
38379;SDS011;38377;47.418;18.882;2024-03-08T00:37:22;31.17;;;15.97;;
38379;SDS011;38377;47.418;18.882;2024-03-08T00:39:51;32.60;;;15.77;;
38379;SDS011;38377;47.418;18.882;2024-03-08T00:42:17;29.27;;;15.65;;
38379;SDS011;38377;47.418;18.882;2024-03-08T00:44:46;35.13;;;16.50;;
38379;SDS011;38377;47.418;18.882;2024-03-08T00:47:13;28.83;;;14.98;;
38379;SDS011;38377;47.418;18.882;2024-03-08T00:49:38;28.67;;;15.07;;
38379;SDS011;38377;47.418;18.882;2024-03-08T00:52:07;30.10;;;16.02;;
38379;SDS011;38377;47.418;18.882;2024-03-08T00:54:33;30.73;;;14.38;;
38379;SDS011;38377;47.418;18.882;2024-03-08T00:57:01;32.30;;;17.40;;
38379;SDS011;38377;47.418;18.882;2024-03-08T00:59:28;32.97;;;15.75;;
38379;SDS011;38377;47.418;18.882;2024-03-08T01:01:54;35.60;;;17.88;;
38379;SDS011;38377;47.418;18.882;2024-03-08T01:04:20;30.75;;;17.02;;
38379;SDS011;38377;47.418;18.882;2024-03-08T01:06:46;33.00;;;16.42;;
38379;SDS011;38377;47.418;18.882;2024-03-08T01:09:12;32.55;;;15.25;;
38379;SDS011;38377;47.418;18.882;2024-03-08T01:11:38;33.80;;;16.30;;
38379;SDS011;38377;47.418;18.882;2024-03-08T01:14:04;28.52;;;14.18;;
38379;SDS011;38377;47.418;18.882;2024-03-08T01:16:29;33.00;;;16.58;;
38379;SDS011;38377;47.418;18.882;2024-03-08T01:18:55;28.50;;;15.23;;
38379;SDS011;38377;47.418;18.882;2024-03-08T01:21:20;33.00;;;16.15;;
38379;SDS011;38377;47.418;18.882;2024-03-08T01:23:47;32.85;;;16.20;;
38379;SDS011;38377;47.418;18.882;2024-03-08T01:26:12;28.55;;;16.05;;
38379;SDS011;38377;47.418;18.882;2024-03-08T01:28:40;30.13;;;15.40;;
38379;SDS011;38377;47.418;18.882;2024-03-08T01:31:05;33.60;;;16.63;;
38379;SDS011;38377;47.418;18.882;2024-03-08T01:33:31;30.73;;;15.98;;
38379;SDS011;38377;47.418;18.882;2024-03-08T01:35:56;33.92;;;16.77;;
38379;SDS011;38377;47.418;18.882;2024-03-08T01:38:23;35.38;;;16.23;;
38379;SDS011;38377;47.418;18.882;2024-03-08T01:40:51;27.55;;;15.10;;
38379;SDS011;38377;47.418;18.882;2024-03-08T01:43:18;31.02;;;16.73;;
38379;SDS011;38377;47.418;18.882;2024-03-08T01:45:47;34.75;;;16.85;;
38379;SDS011;38377;47.418;18.882;2024-03-08T01:48:16;38.53;;;18.20;;
38379;SDS011;38377;47.418;18.882;2024-03-08T01:50:43;39.80;;;18.95;;
38379;SDS011;38377;47.418;18.882;2024-03-08T01:53:10;37.13;;;18.30;;
38379;SDS011;38377;47.418;18.882;2024-03-08T01:55:37;38.58;;;18.60;;
38379;SDS011;38377;47.418;18.882;2024-03-08T01:58:04;36.60;;;18.10;;
38379;SDS011;38377;47.418;18.882;2024-03-08T02:00:31;41.15;;;16.83;;
38379;SDS011;38377;47.418;18.882;2024-03-08T02:02:58;43.20;;;18.73;;
38379;SDS011;38377;47.418;18.882;2024-03-08T02:05:23;48.42;;;19.95;;
38379;SDS011;38377;47.418;18.882;2024-03-08T02:07:49;41.90;;;18.42;;
38379;SDS011;38377;47.418;18.882;2024-03-08T02:10:16;43.73;;;19.83;;
38379;SDS011;38377;47.418;18.882;2024-03-08T02:12:42;35.17;;;18.73;;
38379;SDS011;38377;47.418;18.882;2024-03-08T02:15:08;41.60;;;18.30;;
38379;SDS011;38377;47.418;18.882;2024-03-08T02:17:33;42.00;;;18.67;;
38379;SDS011;38377;47.418;18.882;2024-03-08T02:20:00;34.60;;;17.45;;
38379;SDS011;38377;47.418;18.882;2024-03-08T02:22:27;34.20;;;17.33;;
38379;SDS011;38377;47.418;18.882;2024-03-08T02:24:53;44.57;;;18.97;;
38379;SDS011;38377;47.418;18.882;2024-03-08T02:27:23;40.38;;;19.52;;
38379;SDS011;38377;47.418;18.882;2024-03-08T02:29:50;39.30;;;19.23;;
38379;SDS011;38377;47.418;18.882;2024-03-08T02:32:23;40.78;;;17.77;;
38379;SDS011;38377;47.418;18.882;2024-03-08T02:34:49;33.92;;;16.55;;
38379;SDS011;38377;47.418;18.882;2024-03-08T02:37:15;39.17;;;18.25;;
38379;SDS011;38377;47.418;18.882;2024-03-08T02:39:41;40.25;;;18.38;;
38379;SDS011;38377;47.418;18.882;2024-03-08T02:42:07;34.77;;;17.97;;
38379;SDS011;38377;47.418;18.882;2024-03-08T02:44:32;39.85;;;18.52;;
38379;SDS011;38377;47.418;18.882;2024-03-08T02:47:01;41.53;;;20.52;;
38379;SDS011;38377;47.418;18.882;2024-03-08T02:49:26;41.40;;;19.63;;
38379;SDS011;38377;47.418;18.882;2024-03-08T02:51:52;41.88;;;19.05;;
38379;SDS011;38377;47.418;18.882;2024-03-08T02:54:18;35.22;;;17.58;;
38379;SDS011;38377;47.418;18.882;2024-03-08T02:56:45;42.15;;;18.75;;
38379;SDS011;38377;47.418;18.882;2024-03-08T02:59:16;36.75;;;18.48;;
38379;SDS011;38377;47.418;18.882;2024-03-08T03:01:42;41.10;;;20.48;;
38379;SDS011;38377;47.418;18.882;2024-03-08T03:04:08;37.60;;;17.98;;
38379;SDS011;38377;47.418;18.882;2024-03-08T03:06:33;37.70;;;19.67;;
38379;SDS011;38377;47.418;18.882;2024-03-08T03:08:59;45.67;;;20.67;;
38379;SDS011;38377;47.418;18.882;2024-03-08T03:11:25;45.95;;;19.90;;
38379;SDS011;38377;47.418;18.882;2024-03-08T03:13:50;47.55;;;22.13;;
38379;SDS011;38377;47.418;18.882;2024-03-08T03:16:19;47.28;;;21.80;;
38379;SDS011;38377;47.418;18.882;2024-03-08T03:18:45;45.58;;;21.80;;
38379;SDS011;38377;47.418;18.882;2024-03-08T03:21:11;42.47;;;19.55;;
38379;SDS011;38377;47.418;18.882;2024-03-08T03:23:38;42.05;;;19.65;;
38379;SDS011;38377;47.418;18.882;2024-03-08T03:26:05;45.90;;;20.45;;
38379;SDS011;38377;47.418;18.882;2024-03-08T03:28:32;46.65;;;20.30;;
38379;SDS011;38377;47.418;18.882;2024-03-08T03:30:58;52.33;;;22.42;;
38379;SDS011;38377;47.418;18.882;2024-03-08T03:33:24;49.83;;;21.75;;
38379;SDS011;38377;47.418;18.882;2024-03-08T03:35:50;46.15;;;20.67;;
38379;SDS011;38377;47.418;18.882;2024-03-08T03:38:17;49.30;;;22.50;;
38379;SDS011;38377;47.418;18.882;2024-03-08T03:40:44;44.42;;;21.17;;
38379;SDS011;38377;47.418;18.882;2024-03-08T03:43:11;48.75;;;21.52;;
38379;SDS011;38377;47.418;18.882;2024-03-08T03:45:37;48.70;;;21.38;;
38379;SDS011;38377;47.418;18.882;2024-03-08T03:48:04;46.88;;;21.95;;
38379;SDS011;38377;47.418;18.882;2024-03-08T03:50:34;44.42;;;21.35;;
38379;SDS011;38377;47.418;18.882;2024-03-08T03:53:00;40.30;;;20.30;;
38379;SDS011;38377;47.418;18.882;2024-03-08T03:55:27;46.03;;;21.27;;
38379;SDS011;38377;47.418;18.882;2024-03-08T03:57:53;43.35;;;20.25;;
38379;SDS011;38377;47.418;18.882;2024-03-08T04:00:19;50.43;;;21.80;;
38379;SDS011;38377;47.418;18.882;2024-03-08T04:02:45;51.90;;;24.57;;
38379;SDS011;38377;47.418;18.882;2024-03-08T04:05:11;53.65;;;22.75;;
38379;SDS011;38377;47.418;18.882;2024-03-08T04:07:37;48.25;;;21.75;;
38379;SDS011;38377;47.418;18.882;2024-03-08T04:10:04;52.47;;;21.63;;
38379;SDS011;38377;47.418;18.882;2024-03-08T04:12:31;52.93;;;24.07;;
38379;SDS011;38377;47.418;18.882;2024-03-08T04:15:00;50.00;;;21.85;;
38379;SDS011;38377;47.418;18.882;2024-03-08T04:17:26;44.00;;;21.45;;
38379;SDS011;38377;47.418;18.882;2024-03-08T04:19:52;48.70;;;23.15;;
38379;SDS011;38377;47.418;18.882;2024-03-08T04:22:17;50.83;;;23.08;;
38379;SDS011;38377;47.418;18.882;2024-03-08T04:24:44;47.43;;;21.43;;
38379;SDS011;38377;47.418;18.882;2024-03-08T04:27:10;49.10;;;21.02;;
38379;SDS011;38377;47.418;18.882;2024-03-08T04:29:36;48.58;;;22.65;;
38379;SDS011;38377;47.418;18.882;2024-03-08T04:32:03;46.40;;;20.90;;
38379;SDS011;38377;47.418;18.882;2024-03-08T04:34:30;51.25;;;21.48;;
38379;SDS011;38377;47.418;18.882;2024-03-08T04:36:59;46.37;;;22.40;;
38379;SDS011;38377;47.418;18.882;2024-03-08T04:39:25;49.63;;;20.83;;
38379;SDS011;38377;47.418;18.882;2024-03-08T04:41:53;54.85;;;22.00;;
38379;SDS011;38377;47.418;18.882;2024-03-08T04:44:21;49.50;;;22.87;;
38379;SDS011;38377;47.418;18.882;2024-03-08T04:46:48;61.17;;;25.83;;
38379;SDS011;38377;47.418;18.882;2024-03-08T04:49:14;45.08;;;21.50;;
38379;SDS011;38377;47.418;18.882;2024-03-08T04:51:39;45.27;;;21.53;;
38379;SDS011;38377;47.418;18.882;2024-03-08T04:54:05;49.53;;;21.40;;
38379;SDS011;38377;47.418;18.882;2024-03-08T04:56:31;47.53;;;22.27;;
38379;SDS011;38377;47.418;18.882;2024-03-08T04:58:56;46.40;;;21.90;;
38379;SDS011;38377;47.418;18.882;2024-03-08T05:01:22;46.50;;;20.10;;
38379;SDS011;38377;47.418;18.882;2024-03-08T05:03:48;44.00;;;21.83;;
38379;SDS011;38377;47.418;18.882;2024-03-08T05:06:15;44.13;;;21.30;;
38379;SDS011;38377;47.418;18.882;2024-03-08T05:08:41;54.47;;;21.80;;
38379;SDS011;38377;47.418;18.882;2024-03-08T05:11:06;44.38;;;20.58;;
38379;SDS011;38377;47.418;18.882;2024-03-08T05:13:32;53.15;;;22.83;;
38379;SDS011;38377;47.418;18.882;2024-03-08T05:15:59;51.20;;;22.17;;
38379;SDS011;38377;47.418;18.882;2024-03-08T05:18:25;52.83;;;22.65;;
38379;SDS011;38377;47.418;18.882;2024-03-08T05:20:53;52.13;;;22.03;;
38379;SDS011;38377;47.418;18.882;2024-03-08T05:23:18;48.45;;;20.75;;
38379;SDS011;38377;47.418;18.882;2024-03-08T05:25:44;46.47;;;21.07;;
38379;SDS011;38377;47.418;18.882;2024-03-08T05:28:13;51.95;;;22.95;;
38379;SDS011;38377;47.418;18.882;2024-03-08T05:30:39;53.55;;;23.25;;
38379;SDS011;38377;47.418;18.882;2024-03-08T05:33:05;53.97;;;22.10;;
38379;SDS011;38377;47.418;18.882;2024-03-08T05:35:30;53.47;;;24.20;;
38379;SDS011;38377;47.418;18.882;2024-03-08T05:37:57;52.70;;;22.27;;
38379;SDS011;38377;47.418;18.882;2024-03-08T05:40:22;49.00;;;21.95;;
38379;SDS011;38377;47.418;18.882;2024-03-08T05:42:52;47.70;;;22.33;;
38379;SDS011;38377;47.418;18.882;2024-03-08T05:45:17;52.20;;;24.45;;
38379;SDS011;38377;47.418;18.882;2024-03-08T05:47:43;52.05;;;22.95;;
38379;SDS011;38377;47.418;18.882;2024-03-08T05:50:09;48.80;;;21.67;;
38379;SDS011;38377;47.418;18.882;2024-03-08T05:52:36;56.03;;;23.67;;
38379;SDS011;38377;47.418;18.882;2024-03-08T05:55:03;51.90;;;22.40;;
38379;SDS011;38377;47.418;18.882;2024-03-08T05:57:32;49.47;;;22.38;;
38379;SDS011;38377;47.418;18.882;2024-03-08T05:59:58;51.07;;;24.30;;
38379;SDS011;38377;47.418;18.882;2024-03-08T06:02:23;55.95;;;24.30;;
38379;SDS011;38377;47.418;18.882;2024-03-08T06:04:49;57.22;;;23.10;;
38379;SDS011;38377;47.418;18.882;2024-03-08T06:07:15;51.78;;;23.15;;
38379;SDS011;38377;47.418;18.882;2024-03-08T06:09:42;50.67;;;22.63;;
38379;SDS011;38377;47.418;18.882;2024-03-08T06:12:11;50.35;;;22.67;;
38379;SDS011;38377;47.418;18.882;2024-03-08T06:14:37;55.58;;;24.00;;
38379;SDS011;38377;47.418;18.882;2024-03-08T06:17:02;52.97;;;21.95;;
38379;SDS011;38377;47.418;18.882;2024-03-08T06:19:31;52.65;;;22.38;;
38379;SDS011;38377;47.418;18.882;2024-03-08T06:21:56;51.13;;;24.52;;
38379;SDS011;38377;47.418;18.882;2024-03-08T06:24:22;55.38;;;25.00;;
38379;SDS011;38377;47.418;18.882;2024-03-08T06:26:48;53.35;;;22.85;;
38379;SDS011;38377;47.418;18.882;2024-03-08T06:29:13;54.73;;;25.30;;
38379;SDS011;38377;47.418;18.882;2024-03-08T06:31:40;51.90;;;24.85;;
38379;SDS011;38377;47.418;18.882;2024-03-08T06:34:06;58.08;;;24.40;;
38379;SDS011;38377;47.418;18.882;2024-03-08T06:36:40;55.63;;;23.52;;
38379;SDS011;38377;47.418;18.882;2024-03-08T06:39:05;58.13;;;23.98;;
38379;SDS011;38377;47.418;18.882;2024-03-08T06:41:35;64.60;;;28.58;;
38379;SDS011;38377;47.418;18.882;2024-03-08T06:44:01;65.13;;;27.60;;
38379;SDS011;38377;47.418;18.882;2024-03-08T06:46:27;56.73;;;26.07;;
38379;SDS011;38377;47.418;18.882;2024-03-08T06:48:53;59.23;;;27.87;;
38379;SDS011;38377;47.418;18.882;2024-03-08T06:51:18;62.65;;;24.55;;
38379;SDS011;38377;47.418;18.882;2024-03-08T06:53:44;54.87;;;25.43;;
38379;SDS011;38377;47.418;18.882;2024-03-08T06:56:10;57.55;;;25.05;;
38379;SDS011;38377;47.418;18.882;2024-03-08T06:58:35;56.38;;;24.88;;
38379;SDS011;38377;47.418;18.882;2024-03-08T07:01:01;64.47;;;25.73;;
38379;SDS011;38377;47.418;18.882;2024-03-08T07:03:29;56.90;;;23.55;;
38379;SDS011;38377;47.418;18.882;2024-03-08T07:05:55;54.90;;;23.20;;
38379;SDS011;38377;47.418;18.882;2024-03-08T07:08:23;53.75;;;26.15;;
38379;SDS011;38377;47.418;18.882;2024-03-08T07:10:49;61.45;;;25.90;;
38379;SDS011;38377;47.418;18.882;2024-03-08T07:13:14;55.58;;;25.20;;
38379;SDS011;38377;47.418;18.882;2024-03-08T07:15:40;62.85;;;25.30;;
38379;SDS011;38377;47.418;18.882;2024-03-08T07:18:07;49.80;;;23.33;;
38379;SDS011;38377;47.418;18.882;2024-03-08T07:20:34;56.15;;;25.17;;
38379;SDS011;38377;47.418;18.882;2024-03-08T07:23:00;56.35;;;23.67;;
38379;SDS011;38377;47.418;18.882;2024-03-08T07:25:25;54.92;;;23.25;;
38379;SDS011;38377;47.418;18.882;2024-03-08T07:27:54;56.58;;;24.40;;
38379;SDS011;38377;47.418;18.882;2024-03-08T07:30:22;51.40;;;23.27;;
38379;SDS011;38377;47.418;18.882;2024-03-08T07:33:07;55.78;;;24.63;;
38379;SDS011;38377;47.418;18.882;2024-03-08T07:35:33;54.78;;;25.42;;
38379;SDS011;38377;47.418;18.882;2024-03-08T07:38:02;57.03;;;26.75;;
38379;SDS011;38377;47.418;18.882;2024-03-08T07:40:29;58.55;;;24.63;;
38379;SDS011;38377;47.418;18.882;2024-03-08T07:42:55;53.90;;;24.77;;
38379;SDS011;38377;47.418;18.882;2024-03-08T07:45:21;64.00;;;24.35;;
38379;SDS011;38377;47.418;18.882;2024-03-08T07:47:47;58.63;;;25.40;;
38379;SDS011;38377;47.418;18.882;2024-03-08T07:50:12;59.00;;;25.10;;
38379;SDS011;38377;47.418;18.882;2024-03-08T07:52:41;63.15;;;26.02;;
38379;SDS011;38377;47.418;18.882;2024-03-08T07:55:07;55.50;;;24.10;;
38379;SDS011;38377;47.418;18.882;2024-03-08T07:57:33;59.58;;;25.17;;
38379;SDS011;38377;47.418;18.882;2024-03-08T07:59:59;55.25;;;23.60;;
38379;SDS011;38377;47.418;18.882;2024-03-08T08:02:24;57.53;;;25.67;;
38379;SDS011;38377;47.418;18.882;2024-03-08T08:04:50;54.38;;;25.27;;
38379;SDS011;38377;47.418;18.882;2024-03-08T08:07:16;53.63;;;24.40;;
38379;SDS011;38377;47.418;18.882;2024-03-08T08:09:41;59.17;;;25.42;;
38379;SDS011;38377;47.418;18.882;2024-03-08T08:12:11;54.53;;;25.05;;
38379;SDS011;38377;47.418;18.882;2024-03-08T08:14:39;55.22;;;25.38;;
38379;SDS011;38377;47.418;18.882;2024-03-08T08:17:06;59.83;;;24.73;;
38379;SDS011;38377;47.418;18.882;2024-03-08T08:19:33;59.65;;;24.55;;
38379;SDS011;38377;47.418;18.882;2024-03-08T08:22:00;53.13;;;25.25;;
38379;SDS011;38377;47.418;18.882;2024-03-08T08:24:27;52.78;;;25.05;;
38379;SDS011;38377;47.418;18.882;2024-03-08T08:26:53;59.13;;;24.80;;
38379;SDS011;38377;47.418;18.882;2024-03-08T08:29:18;64.30;;;25.40;;
38379;SDS011;38377;47.418;18.882;2024-03-08T08:31:45;61.72;;;25.90;;
38379;SDS011;38377;47.418;18.882;2024-03-08T08:34:11;68.30;;;26.98;;
38379;SDS011;38377;47.418;18.882;2024-03-08T08:36:37;71.40;;;28.15;;
38379;SDS011;38377;47.418;18.882;2024-03-08T08:39:04;64.68;;;25.42;;
38379;SDS011;38377;47.418;18.882;2024-03-08T08:41:30;52.65;;;24.33;;
38379;SDS011;38377;47.418;18.882;2024-03-08T08:43:56;68.53;;;26.75;;
38379;SDS011;38377;47.418;18.882;2024-03-08T08:46:22;67.35;;;25.27;;
38379;SDS011;38377;47.418;18.882;2024-03-08T08:48:48;58.00;;;24.80;;
38379;SDS011;38377;47.418;18.882;2024-03-08T08:51:13;59.70;;;25.13;;
38379;SDS011;38377;47.418;18.882;2024-03-08T08:53:40;58.17;;;25.05;;
38379;SDS011;38377;47.418;18.882;2024-03-08T08:56:25;59.22;;;25.75;;
38379;SDS011;38377;47.418;18.882;2024-03-08T08:58:51;58.25;;;23.15;;
38379;SDS011;38377;47.418;18.882;2024-03-08T09:01:18;57.15;;;23.27;;
38379;SDS011;38377;47.418;18.882;2024-03-08T09:03:44;57.67;;;22.83;;
38379;SDS011;38377;47.418;18.882;2024-03-08T09:06:12;50.15;;;22.48;;
38379;SDS011;38377;47.418;18.882;2024-03-08T09:08:40;54.50;;;23.15;;
38379;SDS011;38377;47.418;18.882;2024-03-08T09:11:06;53.50;;;23.65;;
38379;SDS011;38377;47.418;18.882;2024-03-08T09:13:32;49.25;;;22.45;;
38379;SDS011;38377;47.418;18.882;2024-03-08T09:16:04;48.67;;;21.65;;
38379;SDS011;38377;47.418;18.882;2024-03-08T09:18:31;49.28;;;24.02;;
38379;SDS011;38377;47.418;18.882;2024-03-08T09:21:00;51.50;;;22.92;;
38379;SDS011;38377;47.418;18.882;2024-03-08T09:23:25;55.33;;;25.92;;
38379;SDS011;38377;47.418;18.882;2024-03-08T09:25:55;57.63;;;24.23;;
38379;SDS011;38377;47.418;18.882;2024-03-08T09:28:22;60.50;;;24.13;;
38379;SDS011;38377;47.418;18.882;2024-03-08T09:30:48;52.33;;;22.75;;
38379;SDS011;38377;47.418;18.882;2024-03-08T09:33:14;58.47;;;24.88;;
38379;SDS011;38377;47.418;18.882;2024-03-08T09:35:44;53.60;;;24.45;;
38379;SDS011;38377;47.418;18.882;2024-03-08T09:38:13;63.78;;;24.98;;
38379;SDS011;38377;47.418;18.882;2024-03-08T09:40:42;57.10;;;23.23;;
38379;SDS011;38377;47.418;18.882;2024-03-08T09:43:09;58.08;;;24.25;;
38379;SDS011;38377;47.418;18.882;2024-03-08T09:45:37;62.40;;;24.30;;
38379;SDS011;38377;47.418;18.882;2024-03-08T09:48:06;59.95;;;23.77;;
38379;SDS011;38377;47.418;18.882;2024-03-08T09:50:37;57.55;;;23.77;;
38379;SDS011;38377;47.418;18.882;2024-03-08T09:53:03;58.58;;;26.02;;
38379;SDS011;38377;47.418;18.882;2024-03-08T09:55:29;59.20;;;25.30;;
38379;SDS011;38377;47.418;18.882;2024-03-08T09:57:59;58.15;;;25.48;;
38379;SDS011;38377;47.418;18.882;2024-03-08T10:00:45;54.22;;;23.30;;
38379;SDS011;38377;47.418;18.882;2024-03-08T10:03:11;60.70;;;26.08;;
38379;SDS011;38377;47.418;18.882;2024-03-08T10:05:39;58.75;;;24.48;;
38379;SDS011;38377;47.418;18.882;2024-03-08T10:08:06;50.45;;;21.80;;
38379;SDS011;38377;47.418;18.882;2024-03-08T10:10:33;54.67;;;23.48;;
38379;SDS011;38377;47.418;18.882;2024-03-08T10:12:59;52.50;;;24.75;;
38379;SDS011;38377;47.418;18.882;2024-03-08T10:15:27;60.38;;;24.98;;
38379;SDS011;38377;47.418;18.882;2024-03-08T10:17:58;54.25;;;23.73;;
38379;SDS011;38377;47.418;18.882;2024-03-08T10:20:24;73.55;;;37.17;;
38379;SDS011;38377;47.418;18.882;2024-03-08T10:22:51;56.75;;;27.10;;
38379;SDS011;38377;47.418;18.882;2024-03-08T10:25:18;58.15;;;26.88;;
38379;SDS011;38377;47.418;18.882;2024-03-08T10:27:44;51.00;;;23.50;;
38379;SDS011;38377;47.418;18.882;2024-03-08T10:30:10;53.53;;;24.48;;
38379;SDS011;38377;47.418;18.882;2024-03-08T10:32:39;55.40;;;23.85;;
38379;SDS011;38377;47.418;18.882;2024-03-08T10:35:06;67.00;;;31.02;;
38379;SDS011;38377;47.418;18.882;2024-03-08T10:40:28;61.33;;;23.95;;
38379;SDS011;38377;47.418;18.882;2024-03-08T10:42:55;54.15;;;22.67;;
38379;SDS011;38377;47.418;18.882;2024-03-08T10:45:25;57.70;;;26.27;;
38379;SDS011;38377;47.418;18.882;2024-03-08T10:50:53;52.97;;;23.48;;
38379;SDS011;38377;47.418;18.882;2024-03-08T10:53:19;48.72;;;22.67;;
38379;SDS011;38377;47.418;18.882;2024-03-08T10:55:49;56.92;;;24.60;;
38379;SDS011;38377;47.418;18.882;2024-03-08T10:58:18;55.38;;;26.58;;
38379;SDS011;38377;47.418;18.882;2024-03-08T11:00:47;46.60;;;22.80;;
38379;SDS011;38377;47.418;18.882;2024-03-08T11:06:08;57.28;;;25.13;;
38379;SDS011;38377;47.418;18.882;2024-03-08T11:08:39;54.33;;;22.85;;
38379;SDS011;38377;47.418;18.882;2024-03-08T11:11:04;52.55;;;23.95;;
38379;SDS011;38377;47.418;18.882;2024-03-08T11:13:37;53.80;;;24.88;;
38379;SDS011;38377;47.418;18.882;2024-03-08T11:16:11;55.78;;;25.70;;
38379;SDS011;38377;47.418;18.882;2024-03-08T11:19:00;48.75;;;22.02;;
38379;SDS011;38377;47.418;18.882;2024-03-08T11:21:31;46.60;;;21.58;;
38379;SDS011;38377;47.418;18.882;2024-03-08T11:24:13;47.33;;;23.55;;
38379;SDS011;38377;47.418;18.882;2024-03-08T11:26:41;51.10;;;24.35;;
38379;SDS011;38377;47.418;18.882;2024-03-08T11:29:32;45.53;;;21.40;;
38379;SDS011;38377;47.418;18.882;2024-03-08T11:34:30;45.60;;;22.42;;
38379;SDS011;38377;47.418;18.882;2024-03-08T11:36:58;42.47;;;20.38;;
38379;SDS011;38377;47.418;18.882;2024-03-08T11:39:24;48.67;;;22.05;;
38379;SDS011;38377;47.418;18.882;2024-03-08T11:41:50;55.97;;;31.10;;
38379;SDS011;38377;47.418;18.882;2024-03-08T11:44:16;42.30;;;20.88;;
38379;SDS011;38377;47.418;18.882;2024-03-08T11:46:42;40.67;;;20.50;;
38379;SDS011;38377;47.418;18.882;2024-03-08T11:49:12;40.08;;;22.70;;
38379;SDS011;38377;47.418;18.882;2024-03-08T11:51:41;43.35;;;20.33;;
38379;SDS011;38377;47.418;18.882;2024-03-08T11:54:12;40.13;;;18.33;;
38379;SDS011;38377;47.418;18.882;2024-03-08T11:56:40;38.22;;;18.73;;
38379;SDS011;38377;47.418;18.882;2024-03-08T11:59:12;35.67;;;20.02;;
38379;SDS011;38377;47.418;18.882;2024-03-08T12:01:38;33.70;;;17.83;;
38379;SDS011;38377;47.418;18.882;2024-03-08T12:04:04;38.45;;;18.45;;
38379;SDS011;38377;47.418;18.882;2024-03-08T12:06:37;29.45;;;16.40;;
38379;SDS011;38377;47.418;18.882;2024-03-08T12:09:04;27.92;;;15.70;;
38379;SDS011;38377;47.418;18.882;2024-03-08T12:11:34;37.38;;;15.98;;
38379;SDS011;38377;47.418;18.882;2024-03-08T12:14:01;33.95;;;16.67;;
38379;SDS011;38377;47.418;18.882;2024-03-08T12:55:11;31.85;;;17.33;;
38379;SDS011;38377;47.418;18.882;2024-03-08T12:57:37;30.05;;;15.82;;
38379;SDS011;38377;47.418;18.882;2024-03-08T13:00:03;29.15;;;16.15;;
38379;SDS011;38377;47.418;18.882;2024-03-08T13:02:30;27.73;;;16.40;;
38379;SDS011;38377;47.418;18.882;2024-03-08T13:04:57;25.73;;;15.63;;
38379;SDS011;38377;47.418;18.882;2024-03-08T13:07:23;28.45;;;15.50;;
38379;SDS011;38377;47.418;18.882;2024-03-08T13:09:53;27.35;;;15.48;;
38379;SDS011;38377;47.418;18.882;2024-03-08T13:12:19;26.98;;;14.90;;
38379;SDS011;38377;47.418;18.882;2024-03-08T13:14:46;30.95;;;15.60;;
38379;SDS011;38377;47.418;18.882;2024-03-08T13:17:13;27.48;;;15.45;;
38379;SDS011;38377;47.418;18.882;2024-03-08T13:19:39;29.20;;;16.20;;
38379;SDS011;38377;47.418;18.882;2024-03-08T13:22:05;30.45;;;16.67;;
38379;SDS011;38377;47.418;18.882;2024-03-08T13:24:31;30.77;;;16.52;;
38379;SDS011;38377;47.418;18.882;2024-03-08T13:26:56;28.50;;;16.63;;
38379;SDS011;38377;47.418;18.882;2024-03-08T13:29:23;24.30;;;14.95;;
38379;SDS011;38377;47.418;18.882;2024-03-08T13:31:49;23.80;;;13.63;;
38379;SDS011;38377;47.418;18.882;2024-03-08T13:34:17;22.02;;;13.82;;
38379;SDS011;38377;47.418;18.882;2024-03-08T13:36:54;24.58;;;14.95;;
38379;SDS011;38377;47.418;18.882;2024-03-08T13:39:25;22.98;;;13.63;;
38379;SDS011;38377;47.418;18.882;2024-03-08T13:41:51;17.95;;;12.15;;
38379;SDS011;38377;47.418;18.882;2024-03-08T13:44:16;22.85;;;14.65;;
38379;SDS011;38377;47.418;18.882;2024-03-08T13:46:46;21.73;;;13.07;;
38379;SDS011;38377;47.418;18.882;2024-03-08T13:49:12;20.77;;;13.15;;
38379;SDS011;38377;47.418;18.882;2024-03-08T13:51:40;20.98;;;12.65;;
38379;SDS011;38377;47.418;18.882;2024-03-08T13:54:06;23.67;;;13.90;;
38379;SDS011;38377;47.418;18.882;2024-03-08T13:56:31;25.63;;;16.65;;
38379;SDS011;38377;47.418;18.882;2024-03-08T13:58:57;26.63;;;15.13;;
38379;SDS011;38377;47.418;18.882;2024-03-08T14:01:23;23.27;;;14.82;;
38379;SDS011;38377;47.418;18.882;2024-03-08T14:03:48;23.83;;;12.73;;
38379;SDS011;38377;47.418;18.882;2024-03-08T14:06:14;17.88;;;12.52;;
38379;SDS011;38377;47.418;18.882;2024-03-08T14:08:40;21.40;;;12.02;;
38379;SDS011;38377;47.418;18.882;2024-03-08T14:11:06;18.20;;;12.27;;
38379;SDS011;38377;47.418;18.882;2024-03-08T14:13:41;17.00;;;11.98;;
38379;SDS011;38377;47.418;18.882;2024-03-08T14:16:09;21.50;;;13.80;;
38379;SDS011;38377;47.418;18.882;2024-03-08T14:18:35;18.20;;;11.95;;
38379;SDS011;38377;47.418;18.882;2024-03-08T14:21:02;19.25;;;11.63;;
38379;SDS011;38377;47.418;18.882;2024-03-08T14:23:29;20.27;;;12.15;;
38379;SDS011;38377;47.418;18.882;2024-03-08T14:25:55;23.08;;;12.80;;
38379;SDS011;38377;47.418;18.882;2024-03-08T14:28:21;21.23;;;13.05;;
38379;SDS011;38377;47.418;18.882;2024-03-08T14:30:47;19.98;;;12.57;;
38379;SDS011;38377;47.418;18.882;2024-03-08T14:33:14;17.42;;;10.77;;
38379;SDS011;38377;47.418;18.882;2024-03-08T14:35:40;18.73;;;11.77;;
38379;SDS011;38377;47.418;18.882;2024-03-08T14:38:10;19.40;;;11.00;;
38379;SDS011;38377;47.418;18.882;2024-03-08T14:40:37;16.60;;;10.43;;
38379;SDS011;38377;47.418;18.882;2024-03-08T14:43:03;20.45;;;11.13;;
38379;SDS011;38377;47.418;18.882;2024-03-08T14:45:29;22.05;;;12.25;;
38379;SDS011;38377;47.418;18.882;2024-03-08T14:47:55;20.77;;;11.55;;
38379;SDS011;38377;47.418;18.882;2024-03-08T14:50:23;22.77;;;12.27;;
38379;SDS011;38377;47.418;18.882;2024-03-08T14:52:49;19.35;;;11.90;;
38379;SDS011;38377;47.418;18.882;2024-03-08T14:55:18;23.10;;;12.65;;
38379;SDS011;38377;47.418;18.882;2024-03-08T14:57:46;21.75;;;12.50;;